Архив погоды в Кочубее

Метеограмма Кочубей
Четверг, 26 Апреля
Время местн. Темп Ветер Видим Явления Облачность нижн/средн/верх Атм. давл. Влжн Точка росы ВНГО R Сост. почвы Tg s
Напр Скр Прв ур.ст ур.м изм
12:00 +23.7° В,Ю-В 5 - 20 км - ясно 766 764 -0.7 26% +2.9° более 2.5 км - - - -
09:00 +19.4° Ю,Ю-В 3 - 20 км - ясно 767 765 +0.5 37% +4.2° более 2.5 км - - - -
06:00 +8.1° Ю-В 2 - 20 км - ясно 766 764 +0.2 95% +7.3° более 2.5 км 0 Сухая (без трещин) +6° -
03:00 +7.5° Ю 1 - 4 км - ясно 766 764 -0.2 95% +6.8° более 2.5 км - - - -
00:00 +9.4° Ю-В 3 - 4 км - ясно 766 764 -0.2 93% +8.3° более 2.5 км - - - -
Среда, 25 Апреля
Время местн. Темп Ветер Видим Явления Облачность нижн/средн/верх Атм. давл. Влжн Точка росы ВНГО R Сост. почвы Tg s
Напр Скр Прв ур.ст ур.м изм
21:00 +11.8° Ю-В 4 - 4 км - ясно 766 764 +0.8 81% +8.7° более 2.5 км - - - -
18:00 +17.9° Ю-В 6 - 20 км - преимущественно облачно 766 764 +0.1 50% +7.4° 1 км 0 - - -
15:00 +21.4° В,Ю-В 4 - 20 км - переменная облачность 766 764 -0.8 31% +3.7° более 2.5 км - - - -
12:00 +20.5° Ю-В 3 - 20 км - переменная облачность 766 765 -1 29% +1.9° более 2.5 км - - - -
09:00 +18.3° Ю-В 3 - 20 км - преимущественно облачно 768 765 +0.1 37% +3.4° более 2.5 км - - - -
06:00 +8.3° Ю 3 - 20 км - облачно с прояснениями 767 765 +0.5 79% +4.9° - - Сухая (без трещин) - -
03:00 +7.4° Ю-В 3 - 4 км - ясно 767 765 -0.8 90% +5.9° более 2.5 км - - - -
00:00 +7.5° Ю-В 2 - 4 км - ясно 768 766 -0.5 89% +5.8° более 2.5 км - - - -
Вторник, 24 Апреля
Время местн. Темп Ветер Видим Явления Облачность нижн/средн/верх Атм. давл. Влжн Точка росы ВНГО R Сост. почвы Tg s
Напр Скр Прв ур.ст ур.м изм
21:00 +10.3° Ю-В 4 - 4 км - ясно 768 766 +0.7 78% +6.6° более 2.5 км - - - -
18:00 +15.7° С,С-З 4 - 20 км - ясно 768 766 0 38% +1.3° более 2.5 км - - - -
15:00 +17° З,С-З 5 11 20 км - облачно с прояснениями 768 766 0 34% +1.2° 1 км - - - -
12:00 +14.7° - - - 20 км - облачно с прояснениями 768 766 +0.3 40% +1.1° 1 км - - - -
09:00 +11.7° С 1 - 20 км - переменная облачность 768 766 +1.7 51% +1.8° 1 км - - - -
06:00 +6.3° С 2 - 20 км - облачно с прояснениями 766 764 +1.3 89% +4.6° - - Влажная (без луж) - -
03:00 +8.3° З 2 - 4 км - переменная облачность 765 763 +1.2 92% +7.1° более 2.5 км - - - -
00:00 +10.6° Ю-З 3 - 4 км - облачно 764 762 +0.4 79% +7.1° 1 км - - - -
Понедельник, 23 Апреля
Время местн. Темп Ветер Видим Явления Облачность нижн/средн/верх Атм. давл. Влжн Точка росы ВНГО R Сост. почвы Tg s
Напр Скр Прв ур.ст ур.м изм
21:00 +10.8° Ю,Ю-З 2 - 4 км ливневый дождь облачно 763 761 +1.4 81% +7.7° 1 км - - - -
18:00 +13.5° З 2 - 20 км небо без изменений {ливневые осадки} преимущественно облачно 762 760 +1.6 65% +7.1° 1 км - - - -
15:00 +17.8° З,С-З 4 - 20 км - облачно с прояснениями 760 758 -0.5 39% +3.8° 1 км - - - -
12:00 +18.2° З 6 12 20 км - переменная облачность 761 759 -0.3 33% +1.6° 1 км - - - -
09:00 +14.5° З,С-З 5 - 20 км - переменная облачность 761 759 +0.6 59% +6.7° - - - - -